sensor_id;sensor_type;location;lat;lon;timestamp;pressure;altitude;pressure_sealevel;temperature;humidity
5522;BME280;2783;48.730;8.006;2023-12-20T00:01:23;100186.91;;;6.87;100.00
5522;BME280;2783;48.730;8.006;2023-12-20T00:03:48;100235.22;;;6.96;100.00
5522;BME280;2783;48.730;8.006;2023-12-20T00:06:14;100209.75;;;6.91;100.00
5522;BME280;2783;48.730;8.006;2023-12-20T00:08:39;100287.69;;;7.26;100.00
5522;BME280;2783;48.730;8.006;2023-12-20T00:11:05;100278.00;;;7.24;100.00
5522;BME280;2783;48.730;8.006;2023-12-20T00:13:30;100277.06;;;7.29;100.00
5522;BME280;2783;48.730;8.006;2023-12-20T00:15:56;100280.56;;;7.28;100.00
5522;BME280;2783;48.730;8.006;2023-12-20T00:18:21;100298.06;;;7.38;100.00
5522;BME280;2783;48.730;8.006;2023-12-20T00:20:47;100290.19;;;7.34;100.00
5522;BME280;2783;48.730;8.006;2023-12-20T00:23:12;100272.63;;;7.28;100.00
5522;BME280;2783;48.730;8.006;2023-12-20T00:25:37;100287.41;;;7.44;100.00
5522;BME280;2783;48.730;8.006;2023-12-20T00:28:03;100277.78;;;7.39;100.00
5522;BME280;2783;48.730;8.006;2023-12-20T00:30:28;100302.25;;;7.53;100.00
5522;BME280;2783;48.730;8.006;2023-12-20T00:32:55;100264.63;;;7.34;100.00
5522;BME280;2783;48.730;8.006;2023-12-20T00:35:20;100229.78;;;7.08;100.00
5522;BME280;2783;48.730;8.006;2023-12-20T00:37:45;100268.16;;;7.33;100.00
5522;BME280;2783;48.730;8.006;2023-12-20T00:40:11;100298.00;;;7.44;100.00
5522;BME280;2783;48.730;8.006;2023-12-20T00:42:36;100259.47;;;7.25;100.00
5522;BME280;2783;48.730;8.006;2023-12-20T00:45:02;100286.53;;;7.42;100.00
5522;BME280;2783;48.730;8.006;2023-12-20T00:47:30;100298.00;;;7.44;100.00
5522;BME280;2783;48.730;8.006;2023-12-20T00:49:55;100320.78;;;7.54;100.00
5522;BME280;2783;48.730;8.006;2023-12-20T00:52:21;100271.81;;;7.26;100.00
5522;BME280;2783;48.730;8.006;2023-12-20T00:54:48;100304.16;;;7.43;100.00
5522;BME280;2783;48.730;8.006;2023-12-20T00:57:14;100314.66;;;7.51;100.00
5522;BME280;2783;48.730;8.006;2023-12-20T00:59:39;100313.75;;;7.50;100.00
5522;BME280;2783;48.730;8.006;2023-12-20T01:02:04;100294.44;;;7.45;100.00
5522;BME280;2783;48.730;8.006;2023-12-20T01:04:30;100267.31;;;7.30;100.00
5522;BME280;2783;48.730;8.006;2023-12-20T01:06:55;100294.44;;;7.45;100.00
5522;BME280;2783;48.730;8.006;2023-12-20T01:09:21;100305.78;;;7.52;100.00
5522;BME280;2783;48.730;8.006;2023-12-20T01:11:49;100292.78;;;7.38;100.00
5522;BME280;2783;48.730;8.006;2023-12-20T01:14:14;100314.59;;;7.54;100.00
5522;BME280;2783;48.730;8.006;2023-12-20T01:16:40;100313.63;;;7.59;100.00
5522;BME280;2783;48.730;8.006;2023-12-20T01:19:05;100251.56;;;7.24;100.00
5522;BME280;2783;48.730;8.006;2023-12-20T01:21:30;100282.09;;;7.44;100.00
5522;BME280;2783;48.730;8.006;2023-12-20T01:23:56;100278.63;;;7.41;100.00
5522;BME280;2783;48.730;8.006;2023-12-20T01:26:21;100285.63;;;7.43;100.00
5522;BME280;2783;48.730;8.006;2023-12-20T01:28:47;100273.31;;;7.42;100.00
5522;BME280;2783;48.730;8.006;2023-12-20T01:31:12;100268.06;;;7.41;100.00
5522;BME280;2783;48.730;8.006;2023-12-20T01:33:38;100281.88;;;7.56;100.00
5522;BME280;2783;48.730;8.006;2023-12-20T01:36:04;100272.22;;;7.55;100.00
5522;BME280;2783;48.730;8.006;2023-12-20T01:38:29;100285.28;;;7.64;100.00
5522;BME280;2783;48.730;8.006;2023-12-20T01:40:55;100280.03;;;7.61;100.00
5522;BME280;2783;48.730;8.006;2023-12-20T03:14:01;100192.59;;;7.17;100.00
5522;BME280;2783;48.730;8.006;2023-12-20T05:23:07;100377.50;;;7.93;100.00
5522;BME280;2783;48.730;8.006;2023-12-20T05:25:33;100388.81;;;8.02;100.00
5522;BME280;2783;48.730;8.006;2023-12-20T05:27:58;100379.22;;;7.97;100.00
5522;BME280;2783;48.730;8.006;2023-12-20T05:30:24;100348.56;;;7.79;100.00
5522;BME280;2783;48.730;8.006;2023-12-20T05:32:49;100395.75;;;8.10;100.00
5522;BME280;2783;48.730;8.006;2023-12-20T05:35:15;100390.56;;;8.03;100.00
5522;BME280;2783;48.730;8.006;2023-12-20T05:37:41;100402.81;;;8.12;100.00
5522;BME280;2783;48.730;8.006;2023-12-20T05:40:07;100397.63;;;8.03;100.00
5522;BME280;2783;48.730;8.006;2023-12-20T05:42:35;100394.09;;;8.02;100.00
5522;BME280;2783;48.730;8.006;2023-12-20T05:45:01;100392.41;;;7.98;100.00
5522;BME280;2783;48.730;8.006;2023-12-20T05:47:26;100424.03;;;8.07;100.00
5522;BME280;2783;48.730;8.006;2023-12-20T05:49:52;100416.03;;;8.11;100.00
5522;BME280;2783;48.730;8.006;2023-12-20T05:52:18;100352.13;;;7.78;100.00
5522;BME280;2783;48.730;8.006;2023-12-20T05:54:43;100337.25;;;7.70;100.00
5522;BME280;2783;48.730;8.006;2023-12-20T05:57:08;100418.66;;;8.14;100.00
5522;BME280;2783;48.730;8.006;2023-12-20T05:59:34;100413.41;;;8.12;100.00
5522;BME280;2783;48.730;8.006;2023-12-20T06:01:59;100390.63;;;8.00;100.00
5522;BME280;2783;48.730;8.006;2023-12-20T06:04:25;100410.81;;;8.06;100.00
5522;BME280;2783;48.730;8.006;2023-12-20T06:06:50;100427.56;;;8.10;100.00
5522;BME280;2783;48.730;8.006;2023-12-20T06:09:16;100402.16;;;7.96;100.00
5522;BME280;2783;48.730;8.006;2023-12-20T06:11:41;100347.97;;;7.64;100.00
5522;BME280;2783;48.730;8.006;2023-12-20T06:14:06;100406.53;;;8.00;100.00
5522;BME280;2783;48.730;8.006;2023-12-20T06:16:32;100428.31;;;8.16;100.00
5522;BME280;2783;48.730;8.006;2023-12-20T06:18:57;100448.56;;;8.22;100.00
5522;BME280;2783;48.730;8.006;2023-12-20T06:21:23;100424.16;;;8.01;100.00
5522;BME280;2783;48.730;8.006;2023-12-20T06:23:48;100431.97;;;8.09;100.00
5522;BME280;2783;48.730;8.006;2023-12-20T06:26:14;100382.19;;;7.74;100.00
5522;BME280;2783;48.730;8.006;2023-12-20T06:28:39;100446.84;;;8.18;100.00
5522;BME280;2783;48.730;8.006;2023-12-20T06:31:04;100431.00;;;8.15;100.00
5522;BME280;2783;48.730;8.006;2023-12-20T06:33:30;100418.63;;;8.15;100.00
5522;BME280;2783;48.730;8.006;2023-12-20T06:35:58;100437.09;;;8.20;100.00
5522;BME280;2783;48.730;8.006;2023-12-20T06:38:24;100432.75;;;8.16;100.00
5522;BME280;2783;48.730;8.006;2023-12-20T06:40:49;100452.88;;;8.29;100.00
5522;BME280;2783;48.730;8.006;2023-12-20T06:43:14;100449.44;;;8.25;100.00
5522;BME280;2783;48.730;8.006;2023-12-20T06:45:40;100423.09;;;8.13;100.00
5522;BME280;2783;48.730;8.006;2023-12-20T06:48:06;100452.88;;;8.29;100.00
5522;BME280;2783;48.730;8.006;2023-12-20T06:50:32;100426.66;;;8.09;100.00
5522;BME280;2783;48.730;8.006;2023-12-20T06:52:57;100417.13;;;7.97;100.00
5522;BME280;2783;48.730;8.006;2023-12-20T06:55:22;100414.53;;;7.94;100.00
5522;BME280;2783;48.730;8.006;2023-12-20T06:57:48;100449.56;;;8.15;100.00
5522;BME280;2783;48.730;8.006;2023-12-20T07:00:15;100459.16;;;8.22;100.00
5522;BME280;2783;48.730;8.006;2023-12-20T07:02:41;100445.44;;;7.97;100.00
5522;BME280;2783;48.730;8.006;2023-12-20T07:05:06;100437.53;;;7.92;100.00
5522;BME280;2783;48.730;8.006;2023-12-20T07:07:32;100492.69;;;8.26;100.00
5522;BME280;2783;48.730;8.006;2023-12-20T07:09:57;100500.66;;;8.23;100.00
5522;BME280;2783;48.730;8.006;2023-12-20T07:12:23;100504.09;;;8.29;100.00
5522;BME280;2783;48.730;8.006;2023-12-20T07:14:48;100446.41;;;7.90;100.00
5522;BME280;2783;48.730;8.006;2023-12-20T07:17:14;100496.31;;;8.16;100.00
5522;BME280;2783;48.730;8.006;2023-12-20T07:19:40;100520.00;;;8.29;100.00
5522;BME280;2783;48.730;8.006;2023-12-20T07:22:07;100472.75;;;7.99;100.00
5522;BME280;2783;48.730;8.006;2023-12-20T07:24:33;100515.78;;;8.15;100.00
5522;BME280;2783;48.730;8.006;2023-12-20T07:27:01;100528.06;;;8.20;100.00
5522;BME280;2783;48.730;8.006;2023-12-20T07:29:27;100521.13;;;8.12;100.00
5522;BME280;2783;48.730;8.006;2023-12-20T07:31:53;100531.72;;;8.12;100.00
5522;BME280;2783;48.730;8.006;2023-12-20T07:34:22;100478.41;;;7.75;100.00
5522;BME280;2783;48.730;8.006;2023-12-20T07:36:47;100479.34;;;7.69;100.00
5522;BME280;2783;48.730;8.006;2023-12-20T07:39:13;100544.31;;;7.94;100.00
5522;BME280;2783;48.730;8.006;2023-12-20T07:41:39;100543.59;;;7.85;100.00
5522;BME280;2783;48.730;8.006;2023-12-20T07:44:04;100550.72;;;7.80;100.00
5522;BME280;2783;48.730;8.006;2023-12-20T07:46:30;100518.25;;;7.63;100.00
5522;BME280;2783;48.730;8.006;2023-12-20T07:48:55;100553.28;;;7.84;100.00
5522;BME280;2783;48.730;8.006;2023-12-20T07:51:21;100537.63;;;7.68;100.00
5522;BME280;2783;48.730;8.006;2023-12-20T07:53:46;100560.50;;;7.73;100.00
5522;BME280;2783;48.730;8.006;2023-12-20T07:56:19;100536.00;;;7.59;100.00
5522;BME280;2783;48.730;8.006;2023-12-20T07:58:45;100551.81;;;7.62;100.00
5522;BME280;2783;48.730;8.006;2023-12-20T08:01:11;100547.50;;;7.55;100.00
5522;BME280;2783;48.730;8.006;2023-12-20T08:03:37;100571.13;;;7.70;100.00
5522;BME280;2783;48.730;8.006;2023-12-20T08:06:03;100578.28;;;7.64;100.00
5522;BME280;2783;48.730;8.006;2023-12-20T08:08:29;100532.88;;;7.24;100.00
5522;BME280;2783;48.730;8.006;2023-12-20T08:10:54;100535.44;;;7.29;100.00
5522;BME280;2783;48.730;8.006;2023-12-20T08:13:20;100574.13;;;7.40;100.00
5522;BME280;2783;48.730;8.006;2023-12-20T08:15:50;100561.13;;;7.19;100.00
5522;BME280;2783;48.730;8.006;2023-12-20T08:18:15;100576.00;;;7.31;100.00
5522;BME280;2783;48.730;8.006;2023-12-20T08:20:41;100590.00;;;7.42;100.00
5522;BME280;2783;48.730;8.006;2023-12-20T08:23:06;100594.41;;;7.43;100.00
5522;BME280;2783;48.730;8.006;2023-12-20T08:25:32;100583.81;;;7.44;100.00
5522;BME280;2783;48.730;8.006;2023-12-20T08:27:57;100582.03;;;7.43;100.00
5522;BME280;2783;48.730;8.006;2023-12-20T08:30:22;100580.16;;;7.54;100.00
5522;BME280;2783;48.730;8.006;2023-12-20T08:32:48;100589.63;;;7.73;100.00
5522;BME280;2783;48.730;8.006;2023-12-20T08:35:14;100567.72;;;7.62;100.00
5522;BME280;2783;48.730;8.006;2023-12-20T08:37:39;100598.28;;;7.89;100.00
5522;BME280;2783;48.730;8.006;2023-12-20T08:40:05;100588.53;;;7.89;100.00
5522;BME280;2783;48.730;8.006;2023-12-20T08:42:31;100618.06;;;8.29;100.00
5522;BME280;2783;48.730;8.006;2023-12-20T08:44:59;100612.47;;;8.49;100.00
5522;BME280;2783;48.730;8.006;2023-12-20T08:47:25;100487.63;;;8.07;100.00
5522;BME280;2783;48.730;8.006;2023-12-20T08:49:52;100615.47;;;8.84;100.00
5522;BME280;2783;48.730;8.006;2023-12-20T08:52:22;100543.38;;;9.09;100.00
5522;BME280;2783;48.730;8.006;2023-12-20T08:54:48;100542.06;;;10.55;100.00
5522;BME280;2783;48.730;8.006;2023-12-20T08:57:13;100630.97;;;10.82;100.00
5522;BME280;2783;48.730;8.006;2023-12-20T08:59:39;100630.50;;;10.25;98.02
5522;BME280;2783;48.730;8.006;2023-12-20T09:02:04;100627.00;;;9.79;97.06
5522;BME280;2783;48.730;8.006;2023-12-20T09:04:30;100616.34;;;9.34;97.71
5522;BME280;2783;48.730;8.006;2023-12-20T09:06:55;100607.81;;;9.19;99.35
5522;BME280;2783;48.730;8.006;2023-12-20T09:09:21;100546.69;;;8.72;100.00
5522;BME280;2783;48.730;8.006;2023-12-20T09:11:46;100614.34;;;8.98;100.00
5522;BME280;2783;48.730;8.006;2023-12-20T09:14:13;100617.66;;;9.11;100.00
5522;BME280;2783;48.730;8.006;2023-12-20T09:16:39;100611.00;;;8.87;100.00
5522;BME280;2783;48.730;8.006;2023-12-20T09:19:04;100609.44;;;8.74;100.00
5522;BME280;2783;48.730;8.006;2023-12-20T09:21:29;100594.44;;;8.72;100.00
5522;BME280;2783;48.730;8.006;2023-12-20T09:23:55;100629.81;;;8.71;100.00
5522;BME280;2783;48.730;8.006;2023-12-20T09:26:20;100622.81;;;8.67;100.00
5522;BME280;2783;48.730;8.006;2023-12-20T09:28:46;100611.28;;;8.69;100.00
5522;BME280;2783;48.730;8.006;2023-12-20T09:31:11;100610.59;;;8.57;100.00
5522;BME280;2783;48.730;8.006;2023-12-20T09:33:37;100563.28;;;8.31;100.00
5522;BME280;2783;48.730;8.006;2023-12-20T09:36:02;100598.09;;;8.65;100.00
5522;BME280;2783;48.730;8.006;2023-12-20T09:38:28;100613.44;;;8.98;100.00
5522;BME280;2783;48.730;8.006;2023-12-20T09:40:54;100621.81;;;10.56;100.00
5522;BME280;2783;48.730;8.006;2023-12-20T09:43:20;100617.97;;;11.40;94.93
5522;BME280;2783;48.730;8.006;2023-12-20T09:45:52;100593.25;;;12.28;87.33
5522;BME280;2783;48.730;8.006;2023-12-20T09:48:19;100616.59;;;14.29;78.49
5522;BME280;2783;48.730;8.006;2023-12-20T09:50:45;100614.78;;;15.17;70.64
5522;BME280;2783;48.730;8.006;2023-12-20T09:53:15;100624.22;;;14.84;64.87
5522;BME280;2783;48.730;8.006;2023-12-20T09:55:41;100615.00;;;13.76;65.77
5522;BME280;2783;48.730;8.006;2023-12-20T09:58:07;100616.13;;;12.64;71.07
5522;BME280;2783;48.730;8.006;2023-12-20T10:00:36;100616.72;;;11.53;76.14
5522;BME280;2783;48.730;8.006;2023-12-20T10:03:03;100605.75;;;10.98;79.43
5522;BME280;2783;48.730;8.006;2023-12-20T10:05:32;100617.28;;;10.61;82.53
5522;BME280;2783;48.730;8.006;2023-12-20T10:07:58;100559.66;;;9.81;82.90
5522;BME280;2783;48.730;8.006;2023-12-20T10:10:25;100594.13;;;10.27;85.35
5522;BME280;2783;48.730;8.006;2023-12-20T10:13:07;100613.47;;;10.33;84.89
5522;BME280;2783;48.730;8.006;2023-12-20T10:15:34;100595.63;;;9.97;84.22
5522;BME280;2783;48.730;8.006;2023-12-20T10:18:00;100600.53;;;9.74;85.45
5522;BME280;2783;48.730;8.006;2023-12-20T10:20:26;100602.63;;;9.57;85.89
5522;BME280;2783;48.730;8.006;2023-12-20T10:22:54;100551.22;;;9.17;86.94
5522;BME280;2783;48.730;8.006;2023-12-20T10:25:21;100603.81;;;9.43;87.35
5522;BME280;2783;48.730;8.006;2023-12-20T10:27:46;100571.50;;;9.19;88.15
5522;BME280;2783;48.730;8.006;2023-12-20T10:30:15;100561.91;;;9.11;88.62
5522;BME280;2783;48.730;8.006;2023-12-20T10:32:40;100573.13;;;9.28;88.51
5522;BME280;2783;48.730;8.006;2023-12-20T10:35:06;100587.47;;;9.18;87.51
5522;BME280;2783;48.730;8.006;2023-12-20T10:37:36;100601.44;;;9.27;87.18
5522;BME280;2783;48.730;8.006;2023-12-20T10:40:03;100576.72;;;9.25;86.68
5522;BME280;2783;48.730;8.006;2023-12-20T10:42:29;100546.13;;;9.05;86.21
5522;BME280;2783;48.730;8.006;2023-12-20T10:44:56;100561.03;;;9.12;85.62
5522;BME280;2783;48.730;8.006;2023-12-20T10:47:22;100567.84;;;9.26;85.74
5522;BME280;2783;48.730;8.006;2023-12-20T10:49:52;100558.91;;;9.32;84.66
5522;BME280;2783;48.730;8.006;2023-12-20T10:52:17;100536.81;;;9.30;84.19
5522;BME280;2783;48.730;8.006;2023-12-20T10:54:44;100545.38;;;9.44;83.77
5522;BME280;2783;48.730;8.006;2023-12-20T10:57:10;100559.28;;;9.57;83.85
5522;BME280;2783;48.730;8.006;2023-12-20T10:59:37;100545.03;;;9.61;84.54
5522;BME280;2783;48.730;8.006;2023-12-20T11:02:04;100557.09;;;9.78;83.15
5522;BME280;2783;48.730;8.006;2023-12-20T11:04:41;100547.88;;;9.94;82.90
5522;BME280;2783;48.730;8.006;2023-12-20T11:07:32;100559.69;;;10.22;82.05
5522;BME280;2783;48.730;8.006;2023-12-20T11:10:03;100556.94;;;10.25;81.39
5522;BME280;2783;48.730;8.006;2023-12-20T11:12:47;100529.81;;;10.11;83.09
5522;BME280;2783;48.730;8.006;2023-12-20T11:15:14;100552.59;;;10.21;82.54
5522;BME280;2783;48.730;8.006;2023-12-20T11:17:40;100544.72;;;10.17;82.67
5522;BME280;2783;48.730;8.006;2023-12-20T11:20:09;100531.63;;;10.09;82.08
5522;BME280;2783;48.730;8.006;2023-12-20T11:22:39;100552.13;;;10.42;82.76
5522;BME280;2783;48.730;8.006;2023-12-20T11:25:17;100511.91;;;10.19;80.74
5522;BME280;2783;48.730;8.006;2023-12-20T11:27:43;100536.66;;;10.21;80.33
5522;BME280;2783;48.730;8.006;2023-12-20T11:30:09;100498.31;;;9.93;80.28
5522;BME280;2783;48.730;8.006;2023-12-20T11:32:36;100533.66;;;9.95;81.85
5522;BME280;2783;48.730;8.006;2023-12-20T11:35:17;100539.25;;;9.83;80.84
5522;BME280;2783;48.730;8.006;2023-12-20T11:37:45;100547.09;;;9.89;81.45
5522;BME280;2783;48.730;8.006;2023-12-20T11:40:15;100549.03;;;9.81;79.81
5522;BME280;2783;48.730;8.006;2023-12-20T11:42:42;100529.63;;;9.78;81.35
5522;BME280;2783;48.730;8.006;2023-12-20T11:45:13;100529.81;;;9.70;81.64
5522;BME280;2783;48.730;8.006;2023-12-20T11:47:43;100541.19;;;9.75;80.70
5522;BME280;2783;48.730;8.006;2023-12-20T11:50:09;100516.69;;;9.61;82.06
5522;BME280;2783;48.730;8.006;2023-12-20T11:52:35;100523.97;;;9.53;81.33
5522;BME280;2783;48.730;8.006;2023-12-20T11:55:00;100538.91;;;9.59;82.23
5522;BME280;2783;48.730;8.006;2023-12-20T11:57:26;100537.16;;;9.56;81.61
5522;BME280;2783;48.730;8.006;2023-12-20T11:59:51;100524.09;;;9.47;82.01
5522;BME280;2783;48.730;8.006;2023-12-20T12:02:17;100517.91;;;9.47;82.85
5522;BME280;2783;48.730;8.006;2023-12-20T12:04:42;100518.94;;;9.38;82.73
5522;BME280;2783;48.730;8.006;2023-12-20T12:07:08;100541.56;;;9.57;82.67
5522;BME280;2783;48.730;8.006;2023-12-20T12:09:34;100539.81;;;9.56;82.24
5522;BME280;2783;48.730;8.006;2023-12-20T12:12:00;100533.69;;;9.53;82.65
5522;BME280;2783;48.730;8.006;2023-12-20T12:14:25;100508.25;;;9.41;82.49
5522;BME280;2783;48.730;8.006;2023-12-20T12:16:51;100515.44;;;9.36;80.88
5522;BME280;2783;48.730;8.006;2023-12-20T12:19:25;100529.16;;;9.58;80.69
5522;BME280;2783;48.730;8.006;2023-12-20T12:22:13;100513.34;;;9.53;81.21
5522;BME280;2783;48.730;8.006;2023-12-20T12:24:42;100485.19;;;9.45;80.46
5522;BME280;2783;48.730;8.006;2023-12-20T12:27:08;100493.81;;;9.54;80.72
5522;BME280;2783;48.730;8.006;2023-12-20T12:29:35;100510.31;;;9.70;81.10
5522;BME280;2783;48.730;8.006;2023-12-20T12:32:01;100510.94;;;9.82;81.18
5522;BME280;2783;48.730;8.006;2023-12-20T12:34:27;100527.63;;;9.89;80.85
5522;BME280;2783;48.730;8.006;2023-12-20T12:36:53;100490.16;;;9.61;79.86
5522;BME280;2783;48.730;8.006;2023-12-20T12:39:19;100519.63;;;9.89;80.51
5522;BME280;2783;48.730;8.006;2023-12-20T12:41:45;100449.84;;;9.41;80.03
5522;BME280;2783;48.730;8.006;2023-12-20T12:44:10;100496.19;;;9.68;79.83
5522;BME280;2783;48.730;8.006;2023-12-20T12:46:36;100510.94;;;9.82;80.39
5522;BME280;2783;48.730;8.006;2023-12-20T12:49:01;100514.56;;;9.78;80.53
5522;BME280;2783;48.730;8.006;2023-12-20T12:51:27;100518.19;;;9.74;80.98
5522;BME280;2783;48.730;8.006;2023-12-20T12:53:53;100512.13;;;9.68;81.01
5522;BME280;2783;48.730;8.006;2023-12-20T12:56:18;100498.31;;;9.51;82.02
5522;BME280;2783;48.730;8.006;2023-12-20T12:58:44;100514.19;;;9.55;81.42
5522;BME280;2783;48.730;8.006;2023-12-20T13:01:10;100499.28;;;9.48;81.64
5522;BME280;2783;48.730;8.006;2023-12-20T13:03:35;100520.56;;;9.47;81.01
5522;BME280;2783;48.730;8.006;2023-12-20T13:06:01;100511.84;;;9.40;81.90
5522;BME280;2783;48.730;8.006;2023-12-20T13:08:27;100518.81;;;9.44;81.76
5522;BME280;2783;48.730;8.006;2023-12-20T13:10:54;100513.56;;;9.41;82.54
5522;BME280;2783;48.730;8.006;2023-12-20T13:13:19;100516.38;;;9.33;82.44
5522;BME280;2783;48.730;8.006;2023-12-20T13:15:44;100448.06;;;8.99;83.26
5522;BME280;2783;48.730;8.006;2023-12-20T13:18:18;100442.91;;;8.91;83.67
5522;BME280;2783;48.730;8.006;2023-12-20T13:20:44;100516.53;;;9.26;84.18
5522;BME280;2783;48.730;8.006;2023-12-20T13:23:10;100474.44;;;9.06;84.14
5522;BME280;2783;48.730;8.006;2023-12-20T13:25:35;100490.31;;;9.09;84.40
5522;BME280;2783;48.730;8.006;2023-12-20T13:28:01;100478.91;;;9.06;83.77
5522;BME280;2783;48.730;8.006;2023-12-20T13:30:27;100449.31;;;8.80;84.46
5522;BME280;2783;48.730;8.006;2023-12-20T13:32:53;100504.47;;;9.10;84.50
5522;BME280;2783;48.730;8.006;2023-12-20T13:35:18;100491.38;;;9.01;84.41
5522;BME280;2783;48.730;8.006;2023-12-20T13:37:45;100508.03;;;9.09;84.20
5522;BME280;2783;48.730;8.006;2023-12-20T13:40:11;100505.38;;;9.09;84.32
5522;BME280;2783;48.730;8.006;2023-12-20T13:42:38;100493.84;;;9.10;84.92
5522;BME280;2783;48.730;8.006;2023-12-20T13:45:03;100456.88;;;9.01;85.38
5522;BME280;2783;48.730;8.006;2023-12-20T13:47:30;100419.59;;;8.63;85.27
5522;BME280;2783;48.730;8.006;2023-12-20T13:49:56;100469.13;;;9.06;85.86
5522;BME280;2783;48.730;8.006;2023-12-20T13:52:21;100459.63;;;8.95;85.66
5522;BME280;2783;48.730;8.006;2023-12-20T13:54:47;100463.16;;;8.97;85.85
5522;BME280;2783;48.730;8.006;2023-12-20T13:57:12;100471.16;;;8.94;85.75
5522;BME280;2783;48.730;8.006;2023-12-20T13:59:38;100460.53;;;8.95;86.53
5522;BME280;2783;48.730;8.006;2023-12-20T14:02:03;100485.16;;;9.02;86.05
5522;BME280;2783;48.730;8.006;2023-12-20T14:04:29;100437.03;;;8.76;85.93
5522;BME280;2783;48.730;8.006;2023-12-20T14:06:56;100433.53;;;8.74;86.54
5522;BME280;2783;48.730;8.006;2023-12-20T14:09:21;100436.91;;;8.82;85.94
5522;BME280;2783;48.730;8.006;2023-12-20T14:11:47;100438.47;;;8.92;86.17
5522;BME280;2783;48.730;8.006;2023-12-20T14:14:12;100450.03;;;8.89;86.38
5522;BME280;2783;48.730;8.006;2023-12-20T14:16:38;100452.53;;;8.97;85.71
5522;BME280;2783;48.730;8.006;2023-12-20T14:19:03;100424.66;;;8.75;86.17
5522;BME280;2783;48.730;8.006;2023-12-20T14:21:30;100456.19;;;8.90;85.75
5522;BME280;2783;48.730;8.006;2023-12-20T14:23:55;100428.06;;;8.83;85.27
5522;BME280;2783;48.730;8.006;2023-12-20T14:26:21;100457.72;;;9.03;85.18
5522;BME280;2783;48.730;8.006;2023-12-20T14:28:46;100433.22;;;8.90;85.24
5522;BME280;2783;48.730;8.006;2023-12-20T14:31:12;100454.22;;;9.02;84.71
5522;BME280;2783;48.730;8.006;2023-12-20T14:33:37;100436.69;;;8.94;85.62
5522;BME280;2783;48.730;8.006;2023-12-20T14:36:05;100421.00;;;8.82;85.75
5522;BME280;2783;48.730;8.006;2023-12-20T14:38:31;100441.91;;;8.97;85.72
5522;BME280;2783;48.730;8.006;2023-12-20T14:40:57;100395.69;;;8.64;86.26
5522;BME280;2783;48.730;8.006;2023-12-20T14:43:22;100466.72;;;8.96;86.86
5522;BME280;2783;48.730;8.006;2023-12-20T14:45:48;100466.59;;;9.02;87.95
5522;BME280;2783;48.730;8.006;2023-12-20T14:48:13;100463.28;;;8.91;88.87
5522;BME280;2783;48.730;8.006;2023-12-20T14:50:39;100468.63;;;8.88;89.53
5522;BME280;2783;48.730;8.006;2023-12-20T14:53:06;100469.50;;;8.88;90.18
5522;BME280;2783;48.730;8.006;2023-12-20T14:55:32;100475.81;;;8.83;91.14
5522;BME280;2783;48.730;8.006;2023-12-20T14:57:59;100475.78;;;8.84;91.15
5522;BME280;2783;48.730;8.006;2023-12-20T15:00:25;100422.56;;;8.46;91.90
5522;BME280;2783;48.730;8.006;2023-12-20T15:02:50;100471.47;;;8.77;92.23
5522;BME280;2783;48.730;8.006;2023-12-20T15:05:16;100472.41;;;8.73;92.81
5522;BME280;2783;48.730;8.006;2023-12-20T15:07:43;100462.91;;;8.62;93.29
5522;BME280;2783;48.730;8.006;2023-12-20T15:10:08;100471.72;;;8.64;93.07
5522;BME280;2783;48.730;8.006;2023-12-20T15:12:34;100462.09;;;8.60;92.57
5522;BME280;2783;48.730;8.006;2023-12-20T15:15:00;100474.31;;;8.67;92.71
5522;BME280;2783;48.730;8.006;2023-12-20T15:17:25;100473.44;;;8.68;93.05
5522;BME280;2783;48.730;8.006;2023-12-20T15:19:52;100457.66;;;8.59;92.77
5522;BME280;2783;48.730;8.006;2023-12-20T15:22:17;100434.00;;;8.47;92.98
5522;BME280;2783;48.730;8.006;2023-12-20T15:24:42;100451.50;;;8.57;94.05
5522;BME280;2783;48.730;8.006;2023-12-20T15:27:10;100432.44;;;8.37;94.02
5522;BME280;2783;48.730;8.006;2023-12-20T18:32:48;100392.31;;;8.04;95.87
5522;BME280;2783;48.730;8.006;2023-12-20T18:35:14;100421.31;;;8.14;95.70
5522;BME280;2783;48.730;8.006;2023-12-20T18:37:39;100413.41;;;8.09;96.04
5522;BME280;2783;48.730;8.006;2023-12-20T18:40:05;100404.69;;;8.02;95.52
5522;BME280;2783;48.730;8.006;2023-12-20T18:42:32;100403.81;;;8.03;95.80
5522;BME280;2783;48.730;8.006;2023-12-20T18:44:58;100406.53;;;8.00;95.61
5522;BME280;2783;48.730;8.006;2023-12-20T18:47:23;100392.50;;;7.92;95.57
5522;BME280;2783;48.730;8.006;2023-12-20T18:49:49;100401.22;;;8.00;96.63
5522;BME280;2783;48.730;8.006;2023-12-20T18:52:14;100385.41;;;7.94;96.87
5522;BME280;2783;48.730;8.006;2023-12-20T18:54:40;100375.66;;;7.98;97.05
5522;BME280;2783;48.730;8.006;2023-12-20T18:57:05;100394.00;;;8.10;97.28
5522;BME280;2783;48.730;8.006;2023-12-20T18:59:35;100370.41;;;7.95;96.94
5522;BME280;2783;48.730;8.006;2023-12-20T19:02:01;100370.34;;;7.98;97.21
5522;BME280;2783;48.730;8.006;2023-12-20T19:04:27;100365.09;;;7.96;97.80
5522;BME280;2783;48.730;8.006;2023-12-20T19:06:53;100311.69;;;7.70;97.39
5522;BME280;2783;48.730;8.006;2023-12-20T19:09:23;100372.09;;;7.99;97.62
5522;BME280;2783;48.730;8.006;2023-12-20T19:11:50;100371.13;;;8.04;97.79
5522;BME280;2783;48.730;8.006;2023-12-20T19:14:15;100293.38;;;7.57;97.76
5522;BME280;2783;48.730;8.006;2023-12-20T19:16:40;100360.63;;;7.98;98.36
5522;BME280;2783;48.730;8.006;2023-12-20T19:19:07;100379.88;;;8.10;99.03
5522;BME280;2783;48.730;8.006;2023-12-20T19:21:33;100351.78;;;7.99;98.91
5522;BME280;2783;48.730;8.006;2023-12-20T19:23:58;100333.34;;;7.93;98.54
5522;BME280;2783;48.730;8.006;2023-12-20T19:26:24;100338.69;;;7.92;98.85
5522;BME280;2783;48.730;8.006;2023-12-20T19:28:49;100338.72;;;7.90;98.78
5522;BME280;2783;48.730;8.006;2023-12-20T19:31:15;100352.69;;;7.98;98.93
5522;BME280;2783;48.730;8.006;2023-12-20T19:33:41;100315.97;;;7.76;99.62
5522;BME280;2783;48.730;8.006;2023-12-20T19:36:09;100342.16;;;7.95;99.05
5522;BME280;2783;48.730;8.006;2023-12-20T19:38:35;100344.78;;;7.94;99.11
5522;BME280;2783;48.730;8.006;2023-12-20T19:41:02;100332.59;;;7.85;99.12
5522;BME280;2783;48.730;8.006;2023-12-20T19:43:27;100330.88;;;7.83;98.79
5522;BME280;2783;48.730;8.006;2023-12-20T19:45:52;100333.44;;;7.89;99.04
5522;BME280;2783;48.730;8.006;2023-12-20T19:48:18;100321.16;;;7.83;99.18
5522;BME280;2783;48.730;8.006;2023-12-20T19:50:44;100321.16;;;7.83;99.65